Terminal Aerodrome Forecast
Issued by NWS

Home | Current Version | Previous Version | Text Only | Print | Product List | Glossary On
Versions: 1 2 3 4 5 6 7 8 9 10 11 12 13 14 15 16 17
825
FTUS41 KCAR 251720
TAFFVE
TAF
KFVE 251720Z 2518/2618 32009G16KT P6SM FEW140
     FM260400 32006KT P6SM FEW250=

USA.gov is the U.S. government's official web portal to all federal, state and local government web resources and services.